GADA weather

Dioila Airport
Dioila, Koulikoro Region, Mali

Public forecast

Using degrees Celsius for public forecast. Weather courtesy of forecast.io.

METAR (pilot weather report)

Closest report is Modibo Keita International Airport, 67.4 nm (124.9 km) W. Retrieved 2019/03/20 02:00 UTC (39 minutes ago):

GABS 200200Z 33004KT 300V360 CAVOK 30/12 Q1010 NOSIG

TAF (pilot weather forecast)

Forecast is more than 12 hours old.

Closest forecast is Modibo Keita International Airport, 67.4 nm (124.9 km) W. Retrieved 2019/03/19 00:51 UTC (1 day ago):

TAF GABS 192300Z 2000/2106 23006KT 8000 NSC PROB30 TEMPO 2009/2014 4000 DU